sensor_id;sensor_type;location;lat;lon;timestamp;pressure;altitude;pressure_sealevel;temperature;humidity
51053;BME280;37093;37.716;-122.060;2022-10-16T00:00:18;99562.32;;;21.54;40.96
51053;BME280;37093;37.716;-122.060;2022-10-16T00:02:46;99568.27;;;21.35;41.52
51053;BME280;37093;37.716;-122.060;2022-10-16T00:05:15;99567.93;;;21.46;41.45
51053;BME280;37093;37.716;-122.060;2022-10-16T00:07:43;99566.69;;;21.55;41.33
51053;BME280;37093;37.716;-122.060;2022-10-16T00:10:12;99556.69;;;21.29;40.48
51053;BME280;37093;37.716;-122.060;2022-10-16T00:12:40;99559.00;;;21.56;40.81
51053;BME280;37093;37.716;-122.060;2022-10-16T00:15:09;99563.91;;;20.66;42.06
51053;BME280;37093;37.716;-122.060;2022-10-16T00:17:38;99559.40;;;21.33;41.05
51053;BME280;37093;37.716;-122.060;2022-10-16T00:20:07;99560.31;;;21.62;40.99
51053;BME280;37093;37.716;-122.060;2022-10-16T00:22:37;99561.79;;;21.21;40.97
51053;BME280;37093;37.716;-122.060;2022-10-16T00:25:06;99563.38;;;21.24;41.08
51053;BME280;37093;37.716;-122.060;2022-10-16T00:27:34;99566.99;;;21.19;41.07
51053;BME280;37093;37.716;-122.060;2022-10-16T00:30:04;99561.72;;;21.27;40.86
51053;BME280;37093;37.716;-122.060;2022-10-16T00:32:33;99566.66;;;20.94;41.61
51053;BME280;37093;37.716;-122.060;2022-10-16T00:35:02;99563.03;;;21.48;41.09
51053;BME280;37093;37.716;-122.060;2022-10-16T00:37:30;99567.77;;;21.08;41.88
51053;BME280;37093;37.716;-122.060;2022-10-16T00:39:58;99566.67;;;21.24;42.06
51053;BME280;37093;37.716;-122.060;2022-10-16T00:42:27;99569.36;;;20.98;41.83
51053;BME280;37093;37.716;-122.060;2022-10-16T00:44:56;99570.85;;;21.06;41.88
51053;BME280;37093;37.716;-122.060;2022-10-16T00:47:29;99568.26;;;20.92;41.61
51053;BME280;37093;37.716;-122.060;2022-10-16T00:50:04;99569.13;;;21.16;41.87
51053;BME280;37093;37.716;-122.060;2022-10-16T00:52:35;99571.75;;;20.97;41.38
51053;BME280;37093;37.716;-122.060;2022-10-16T00:55:06;99567.20;;;21.01;42.02
51053;BME280;37093;37.716;-122.060;2022-10-16T00:57:36;99570.00;;;20.91;41.94
51053;BME280;37093;37.716;-122.060;2022-10-16T01:00:08;99568.57;;;21.33;41.44
51053;BME280;37093;37.716;-122.060;2022-10-16T01:02:38;99576.03;;;20.85;41.88
51053;BME280;37093;37.716;-122.060;2022-10-16T01:05:07;99579.21;;;20.98;41.79
51053;BME280;37093;37.716;-122.060;2022-10-16T01:07:44;99576.34;;;21.31;41.27
51053;BME280;37093;37.716;-122.060;2022-10-16T01:10:26;99579.19;;;21.58;40.61
51053;BME280;37093;37.716;-122.060;2022-10-16T01:13:00;99574.70;;;21.47;40.85
51053;BME280;37093;37.716;-122.060;2022-10-16T01:15:34;99575.26;;;21.43;40.89
51053;BME280;37093;37.716;-122.060;2022-10-16T01:18:10;99577.79;;;21.49;40.93
51053;BME280;37093;37.716;-122.060;2022-10-16T01:20:46;99578.18;;;21.71;40.42
51053;BME280;37093;37.716;-122.060;2022-10-16T01:23:30;99581.38;;;20.90;41.16
51053;BME280;37093;37.716;-122.060;2022-10-16T01:26:15;99585.09;;;21.50;40.66
51053;BME280;37093;37.716;-122.060;2022-10-16T01:28:52;99584.66;;;21.66;41.01
51053;BME280;37093;37.716;-122.060;2022-10-16T01:31:27;99588.38;;;21.58;41.29
51053;BME280;37093;37.716;-122.060;2022-10-16T01:34:02;99590.52;;;21.12;41.54
51053;BME280;37093;37.716;-122.060;2022-10-16T01:36:37;99590.94;;;20.90;41.99
51053;BME280;37093;37.716;-122.060;2022-10-16T01:39:10;99594.49;;;20.98;41.40
51053;BME280;37093;37.716;-122.060;2022-10-16T01:41:42;99596.99;;;20.95;41.37
51053;BME280;37093;37.716;-122.060;2022-10-16T01:44:16;99599.58;;;20.23;43.02
51053;BME280;37093;37.716;-122.060;2022-10-16T01:46:50;99600.67;;;20.55;42.39
51053;BME280;37093;37.716;-122.060;2022-10-16T01:49:21;99599.90;;;21.09;41.85
51053;BME280;37093;37.716;-122.060;2022-10-16T01:51:54;99603.94;;;20.88;41.93
51053;BME280;37093;37.716;-122.060;2022-10-16T01:54:26;99601.70;;;20.63;42.98
51053;BME280;37093;37.716;-122.060;2022-10-16T01:56:57;99602.35;;;20.27;43.00
51053;BME280;37093;37.716;-122.060;2022-10-16T01:59:30;99603.85;;;20.15;42.94
51053;BME280;37093;37.716;-122.060;2022-10-16T02:02:01;99605.52;;;20.69;41.97
51053;BME280;37093;37.716;-122.060;2022-10-16T02:04:34;99604.88;;;20.49;42.47
51053;BME280;37093;37.716;-122.060;2022-10-16T02:07:04;99606.31;;;20.70;42.68
51053;BME280;37093;37.716;-122.060;2022-10-16T02:09:35;99605.09;;;20.91;42.32
51053;BME280;37093;37.716;-122.060;2022-10-16T02:12:08;99604.16;;;20.61;42.81
51053;BME280;37093;37.716;-122.060;2022-10-16T02:14:39;99608.03;;;20.86;42.45
51053;BME280;37093;37.716;-122.060;2022-10-16T02:17:13;99613.56;;;20.58;42.61
51053;BME280;37093;37.716;-122.060;2022-10-16T02:19:42;99615.10;;;20.61;42.68
51053;BME280;37093;37.716;-122.060;2022-10-16T02:22:18;99617.86;;;20.17;43.63
51053;BME280;37093;37.716;-122.060;2022-10-16T02:24:53;99620.79;;;20.34;43.33
51053;BME280;37093;37.716;-122.060;2022-10-16T02:27:27;99618.52;;;20.34;43.19
51053;BME280;37093;37.716;-122.060;2022-10-16T02:30:03;99621.00;;;20.77;42.42
51053;BME280;37093;37.716;-122.060;2022-10-16T02:32:35;99619.19;;;20.71;42.41
51053;BME280;37093;37.716;-122.060;2022-10-16T02:35:06;99620.65;;;21.04;41.56
51053;BME280;37093;37.716;-122.060;2022-10-16T02:37:35;99617.91;;;21.21;41.84
51053;BME280;37093;37.716;-122.060;2022-10-16T02:40:06;99621.50;;;20.98;41.82
51053;BME280;37093;37.716;-122.060;2022-10-16T02:42:36;99627.46;;;20.98;41.54
51053;BME280;37093;37.716;-122.060;2022-10-16T02:45:07;99629.15;;;20.58;42.12
51053;BME280;37093;37.716;-122.060;2022-10-16T02:47:36;99631.18;;;20.40;42.77
51053;BME280;37093;37.716;-122.060;2022-10-16T02:50:06;99633.91;;;20.85;42.01
51053;BME280;37093;37.716;-122.060;2022-10-16T02:52:34;99635.50;;;20.92;41.15
51053;BME280;37093;37.716;-122.060;2022-10-16T02:55:03;99639.45;;;20.48;41.97
51053;BME280;37093;37.716;-122.060;2022-10-16T02:57:32;99637.11;;;20.72;41.58
51053;BME280;37093;37.716;-122.060;2022-10-16T03:00:00;99637.83;;;20.55;41.95
51053;BME280;37093;37.716;-122.060;2022-10-16T03:02:29;99640.22;;;21.05;41.20
51053;BME280;37093;37.716;-122.060;2022-10-16T03:04:57;99645.05;;;21.10;41.11
51053;BME280;37093;37.716;-122.060;2022-10-16T03:07:25;99644.02;;;20.98;41.30
51053;BME280;37093;37.716;-122.060;2022-10-16T03:09:54;99643.39;;;20.98;41.55
51053;BME280;37093;37.716;-122.060;2022-10-16T03:12:23;99644.88;;;20.53;42.26
51053;BME280;37093;37.716;-122.060;2022-10-16T03:14:51;99647.28;;;20.96;42.15
51053;BME280;37093;37.716;-122.060;2022-10-16T03:17:19;99647.90;;;21.03;41.69
51053;BME280;37093;37.716;-122.060;2022-10-16T03:19:47;99647.01;;;21.16;41.47
51053;BME280;37093;37.716;-122.060;2022-10-16T03:22:16;99646.37;;;21.32;41.19
51053;BME280;37093;37.716;-122.060;2022-10-16T03:24:44;99646.17;;;21.35;41.14
51053;BME280;37093;37.716;-122.060;2022-10-16T03:27:12;99650.35;;;21.24;41.28
51053;BME280;37093;37.716;-122.060;2022-10-16T03:29:41;99647.54;;;21.22;41.31
51053;BME280;37093;37.716;-122.060;2022-10-16T03:32:09;99648.99;;;21.45;41.01
51053;BME280;37093;37.716;-122.060;2022-10-16T03:34:37;99647.04;;;21.57;40.88
51053;BME280;37093;37.716;-122.060;2022-10-16T03:37:05;99646.33;;;21.75;40.53
51053;BME280;37093;37.716;-122.060;2022-10-16T03:39:33;99648.34;;;21.68;40.70
51053;BME280;37093;37.716;-122.060;2022-10-16T03:42:01;99647.64;;;21.69;40.83
51053;BME280;37093;37.716;-122.060;2022-10-16T03:44:29;99649.99;;;21.56;41.16
51053;BME280;37093;37.716;-122.060;2022-10-16T03:46:58;99653.17;;;21.32;41.48
51053;BME280;37093;37.716;-122.060;2022-10-16T03:49:26;99652.84;;;21.04;41.85
51053;BME280;37093;37.716;-122.060;2022-10-16T03:51:54;99650.76;;;21.29;41.31
51053;BME280;37093;37.716;-122.060;2022-10-16T03:54:22;99649.91;;;21.42;40.97
51053;BME280;37093;37.716;-122.060;2022-10-16T03:56:50;99650.86;;;21.56;40.49
51053;BME280;37093;37.716;-122.060;2022-10-16T03:59:19;99653.54;;;21.24;41.08
51053;BME280;37093;37.716;-122.060;2022-10-16T04:01:48;99657.78;;;21.11;41.40
51053;BME280;37093;37.716;-122.060;2022-10-16T04:04:16;99658.50;;;21.20;41.33
51053;BME280;37093;37.716;-122.060;2022-10-16T04:06:44;99662.95;;;21.45;40.82
51053;BME280;37093;37.716;-122.060;2022-10-16T04:09:12;99661.80;;;20.98;40.80
51053;BME280;37093;37.716;-122.060;2022-10-16T04:11:42;99663.58;;;21.48;40.99
51053;BME280;37093;37.716;-122.060;2022-10-16T04:14:10;99666.17;;;21.08;41.00
51053;BME280;37093;37.716;-122.060;2022-10-16T04:16:38;99667.47;;;21.23;41.18
51053;BME280;37093;37.716;-122.060;2022-10-16T04:19:06;99665.80;;;21.31;40.96
51053;BME280;37093;37.716;-122.060;2022-10-16T04:21:35;99666.64;;;20.72;42.05
51053;BME280;37093;37.716;-122.060;2022-10-16T04:24:03;99669.18;;;21.23;41.24
51053;BME280;37093;37.716;-122.060;2022-10-16T04:26:32;99670.59;;;21.14;40.96
51053;BME280;37093;37.716;-122.060;2022-10-16T04:29:00;99668.70;;;21.45;40.88
51053;BME280;37093;37.716;-122.060;2022-10-16T04:31:29;99666.16;;;21.55;41.07
51053;BME280;37093;37.716;-122.060;2022-10-16T04:33:57;99671.01;;;21.45;40.84
51053;BME280;37093;37.716;-122.060;2022-10-16T04:36:25;99666.87;;;21.28;40.73
51053;BME280;37093;37.716;-122.060;2022-10-16T04:38:54;99669.98;;;21.43;40.47
51053;BME280;37093;37.716;-122.060;2022-10-16T04:41:22;99671.91;;;21.43;40.58
51053;BME280;37093;37.716;-122.060;2022-10-16T04:43:51;99672.39;;;21.61;40.59
51053;BME280;37093;37.716;-122.060;2022-10-16T04:46:19;99672.76;;;21.44;40.46
51053;BME280;37093;37.716;-122.060;2022-10-16T04:48:47;99677.57;;;21.66;40.60
51053;BME280;37093;37.716;-122.060;2022-10-16T04:51:15;99681.06;;;21.40;40.92
51053;BME280;37093;37.716;-122.060;2022-10-16T04:53:44;99686.76;;;21.01;41.64
51053;BME280;37093;37.716;-122.060;2022-10-16T04:56:12;99684.97;;;20.74;41.95
51053;BME280;37093;37.716;-122.060;2022-10-16T04:58:40;99690.16;;;21.11;41.41
51053;BME280;37093;37.716;-122.060;2022-10-16T05:01:08;99693.19;;;21.30;40.95
51053;BME280;37093;37.716;-122.060;2022-10-16T05:03:37;99698.81;;;21.26;40.47
51053;BME280;37093;37.716;-122.060;2022-10-16T05:06:06;99701.08;;;21.34;40.49
51053;BME280;37093;37.716;-122.060;2022-10-16T05:08:34;99699.07;;;21.46;40.67
51053;BME280;37093;37.716;-122.060;2022-10-16T05:11:03;99706.18;;;21.68;40.24
51053;BME280;37093;37.716;-122.060;2022-10-16T05:13:32;99709.55;;;21.48;40.05
51053;BME280;37093;37.716;-122.060;2022-10-16T05:16:01;99708.47;;;21.65;40.27
51053;BME280;37093;37.716;-122.060;2022-10-16T05:18:30;99711.89;;;21.14;40.27
51053;BME280;37093;37.716;-122.060;2022-10-16T05:20:58;99713.60;;;21.41;40.68
51053;BME280;37093;37.716;-122.060;2022-10-16T05:23:26;99716.46;;;20.93;41.62
51053;BME280;37093;37.716;-122.060;2022-10-16T05:25:56;99712.86;;;20.86;40.94
51053;BME280;37093;37.716;-122.060;2022-10-16T05:28:25;99717.61;;;21.41;40.79
51053;BME280;37093;37.716;-122.060;2022-10-16T05:30:54;99717.29;;;21.44;40.83
51053;BME280;37093;37.716;-122.060;2022-10-16T05:33:23;99717.32;;;21.40;41.12
51053;BME280;37093;37.716;-122.060;2022-10-16T05:35:52;99717.09;;;20.97;41.63
51053;BME280;37093;37.716;-122.060;2022-10-16T05:38:20;99715.95;;;21.19;41.19
51053;BME280;37093;37.716;-122.060;2022-10-16T05:40:52;99712.30;;;21.50;40.95
51053;BME280;37093;37.716;-122.060;2022-10-16T05:43:21;99715.60;;;21.67;40.57
51053;BME280;37093;37.716;-122.060;2022-10-16T05:45:55;99717.25;;;21.70;40.51
51053;BME280;37093;37.716;-122.060;2022-10-16T05:48:23;99716.28;;;21.45;41.01
51053;BME280;37093;37.716;-122.060;2022-10-16T05:50:58;99712.80;;;21.59;40.61
51053;BME280;37093;37.716;-122.060;2022-10-16T05:53:28;99715.13;;;21.64;40.61
51053;BME280;37093;37.716;-122.060;2022-10-16T05:55:56;99714.06;;;21.63;40.57
51053;BME280;37093;37.716;-122.060;2022-10-16T05:58:27;99718.08;;;21.56;40.65
51053;BME280;37093;37.716;-122.060;2022-10-16T06:00:57;99719.10;;;21.43;40.24
51053;BME280;37093;37.716;-122.060;2022-10-16T06:03:26;99719.00;;;21.61;40.31
51053;BME280;37093;37.716;-122.060;2022-10-16T06:05:55;99720.32;;;21.26;40.80
51053;BME280;37093;37.716;-122.060;2022-10-16T06:08:24;99722.29;;;21.42;40.44
51053;BME280;37093;37.716;-122.060;2022-10-16T06:11:01;99721.46;;;20.85;41.58
51053;BME280;37093;37.716;-122.060;2022-10-16T06:13:30;99724.90;;;21.30;40.75
51053;BME280;37093;37.716;-122.060;2022-10-16T06:16:00;99724.60;;;20.92;41.10
51053;BME280;37093;37.716;-122.060;2022-10-16T06:18:29;99723.70;;;21.30;40.91
51053;BME280;37093;37.716;-122.060;2022-10-16T06:20:58;99727.31;;;21.30;40.66
51053;BME280;37093;37.716;-122.060;2022-10-16T06:23:28;99722.71;;;21.41;40.58
51053;BME280;37093;37.716;-122.060;2022-10-16T06:26:05;99718.42;;;21.28;40.79
51053;BME280;37093;37.716;-122.060;2022-10-16T06:28:33;99715.02;;;21.36;40.43
51053;BME280;37093;37.716;-122.060;2022-10-16T06:31:03;99714.75;;;21.16;41.24
51053;BME280;37093;37.716;-122.060;2022-10-16T06:33:31;99711.95;;;20.92;41.23
51053;BME280;37093;37.716;-122.060;2022-10-16T06:36:04;99711.64;;;21.02;41.24
51053;BME280;37093;37.716;-122.060;2022-10-16T06:38:34;99708.09;;;21.03;41.46
51053;BME280;37093;37.716;-122.060;2022-10-16T06:41:02;99707.63;;;20.88;41.45
51053;BME280;37093;37.716;-122.060;2022-10-16T06:43:31;99710.51;;;21.03;41.07
51053;BME280;37093;37.716;-122.060;2022-10-16T06:46:01;99709.88;;;21.03;40.99
51053;BME280;37093;37.716;-122.060;2022-10-16T06:48:30;99709.56;;;21.06;41.27
51053;BME280;37093;37.716;-122.060;2022-10-16T06:51:01;99711.40;;;20.88;41.77
51053;BME280;37093;37.716;-122.060;2022-10-16T06:53:31;99714.35;;;20.61;41.91
51053;BME280;37093;37.716;-122.060;2022-10-16T06:56:07;99713.95;;;20.84;41.54
51053;BME280;37093;37.716;-122.060;2022-10-16T06:58:37;99718.05;;;21.03;41.01
51053;BME280;37093;37.716;-122.060;2022-10-16T07:01:15;99719.11;;;20.10;40.66
51053;BME280;37093;37.716;-122.060;2022-10-16T07:03:45;99719.01;;;20.47;38.93
51053;BME280;37093;37.716;-122.060;2022-10-16T07:06:15;99718.82;;;21.98;37.35
51053;BME280;37093;37.716;-122.060;2022-10-16T07:08:45;99724.04;;;22.17;38.36
51053;BME280;37093;37.716;-122.060;2022-10-16T07:11:16;99723.55;;;21.83;38.53
51053;BME280;37093;37.716;-122.060;2022-10-16T07:13:46;99723.74;;;21.55;39.61
51053;BME280;37093;37.716;-122.060;2022-10-16T07:16:17;99729.97;;;21.29;40.00
51053;BME280;37093;37.716;-122.060;2022-10-16T07:18:46;99733.49;;;21.20;40.25
51053;BME280;37093;37.716;-122.060;2022-10-16T07:21:17;99732.28;;;21.07;40.78
51053;BME280;37093;37.716;-122.060;2022-10-16T07:23:45;99729.61;;;21.08;40.73
51053;BME280;37093;37.716;-122.060;2022-10-16T07:26:13;99728.09;;;20.25;42.09
51053;BME280;37093;37.716;-122.060;2022-10-16T07:28:43;99728.52;;;20.76;40.99
51053;BME280;37093;37.716;-122.060;2022-10-16T07:31:13;99724.87;;;20.96;40.70
51053;BME280;37093;37.716;-122.060;2022-10-16T07:33:44;99723.32;;;21.15;40.43
51053;BME280;37093;37.716;-122.060;2022-10-16T07:36:13;99722.82;;;21.29;40.24
51053;BME280;37093;37.716;-122.060;2022-10-16T07:38:42;99722.05;;;21.40;40.02
51053;BME280;37093;37.716;-122.060;2022-10-16T07:41:13;99721.34;;;21.13;39.97
51053;BME280;37093;37.716;-122.060;2022-10-16T07:43:47;99721.53;;;21.00;40.62
51053;BME280;37093;37.716;-122.060;2022-10-16T07:46:15;99719.67;;;20.57;41.56
51053;BME280;37093;37.716;-122.060;2022-10-16T07:48:44;99722.15;;;20.10;41.86
51053;BME280;37093;37.716;-122.060;2022-10-16T07:51:14;99723.72;;;21.02;40.95
51053;BME280;37093;37.716;-122.060;2022-10-16T07:53:43;99722.58;;;20.58;40.84
51053;BME280;37093;37.716;-122.060;2022-10-16T07:56:12;99723.41;;;20.68;40.42
51053;BME280;37093;37.716;-122.060;2022-10-16T07:58:40;99724.81;;;20.94;40.33
51053;BME280;37093;37.716;-122.060;2022-10-16T08:01:11;99723.82;;;20.50;41.66
51053;BME280;37093;37.716;-122.060;2022-10-16T08:03:42;99725.67;;;20.09;41.98
51053;BME280;37093;37.716;-122.060;2022-10-16T08:06:10;99725.18;;;20.26;41.43
51053;BME280;37093;37.716;-122.060;2022-10-16T08:08:39;99730.65;;;19.83;42.52
51053;BME280;37093;37.716;-122.060;2022-10-16T08:11:08;99733.45;;;19.84;42.43
51053;BME280;37093;37.716;-122.060;2022-10-16T08:13:37;99733.68;;;20.34;41.47
51053;BME280;37093;37.716;-122.060;2022-10-16T08:16:06;99739.81;;;21.01;41.16
51053;BME280;37093;37.716;-122.060;2022-10-16T08:18:36;99745.10;;;20.62;40.78
51053;BME280;37093;37.716;-122.060;2022-10-16T08:21:05;99748.11;;;21.01;41.08
51053;BME280;37093;37.716;-122.060;2022-10-16T08:23:34;99750.03;;;20.30;41.84
51053;BME280;37093;37.716;-122.060;2022-10-16T08:26:05;99749.72;;;20.69;41.28
51053;BME280;37093;37.716;-122.060;2022-10-16T08:28:33;99752.37;;;20.66;40.90
51053;BME280;37093;37.716;-122.060;2022-10-16T08:31:11;99749.73;;;20.59;41.46
51053;BME280;37093;37.716;-122.060;2022-10-16T08:33:41;99757.22;;;20.12;41.95
51053;BME280;37093;37.716;-122.060;2022-10-16T08:36:11;99755.51;;;20.39;42.26
51053;BME280;37093;37.716;-122.060;2022-10-16T08:38:40;99755.46;;;20.44;41.59
51053;BME280;37093;37.716;-122.060;2022-10-16T08:41:23;99761.53;;;20.62;41.32
51053;BME280;37093;37.716;-122.060;2022-10-16T08:44:06;99763.63;;;20.93;40.77
51053;BME280;37093;37.716;-122.060;2022-10-16T08:46:45;99767.83;;;20.80;40.70
51053;BME280;37093;37.716;-122.060;2022-10-16T08:49:16;99766.25;;;20.99;40.71
51053;BME280;37093;37.716;-122.060;2022-10-16T08:51:45;99771.00;;;20.91;40.35
51053;BME280;37093;37.716;-122.060;2022-10-16T08:54:26;99772.00;;;21.04;40.43
51053;BME280;37093;37.716;-122.060;2022-10-16T08:56:57;99774.33;;;20.87;40.70
51053;BME280;37093;37.716;-122.060;2022-10-16T08:59:29;99782.35;;;20.58;40.89
51053;BME280;37093;37.716;-122.060;2022-10-16T09:01:57;99778.41;;;20.95;40.59
51053;BME280;37093;37.716;-122.060;2022-10-16T09:04:50;99782.38;;;20.85;40.55
51053;BME280;37093;37.716;-122.060;2022-10-16T09:07:26;99787.60;;;20.24;41.40
51053;BME280;37093;37.716;-122.060;2022-10-16T09:10:11;99787.93;;;21.04;40.33
51053;BME280;37093;37.716;-122.060;2022-10-16T09:12:49;99786.46;;;20.81;40.29
51053;BME280;37093;37.716;-122.060;2022-10-16T09:15:28;99790.13;;;20.67;40.97
51053;BME280;37093;37.716;-122.060;2022-10-16T09:18:02;99785.04;;;20.64;40.67
51053;BME280;37093;37.716;-122.060;2022-10-16T09:20:42;99782.05;;;20.41;40.89
51053;BME280;37093;37.716;-122.060;2022-10-16T09:23:17;99780.67;;;20.72;40.74
51053;BME280;37093;37.716;-122.060;2022-10-16T09:25:48;99781.55;;;20.59;40.82
51053;BME280;37093;37.716;-122.060;2022-10-16T09:28:18;99782.76;;;20.75;40.63
51053;BME280;37093;37.716;-122.060;2022-10-16T09:30:48;99785.34;;;20.25;41.31
51053;BME280;37093;37.716;-122.060;2022-10-16T09:33:18;99788.52;;;20.53;40.88
51053;BME280;37093;37.716;-122.060;2022-10-16T09:35:50;99788.44;;;19.98;41.90
51053;BME280;37093;37.716;-122.060;2022-10-16T09:38:25;99790.36;;;20.55;40.94
51053;BME280;37093;37.716;-122.060;2022-10-16T09:40:54;99789.55;;;20.88;40.78
51053;BME280;37093;37.716;-122.060;2022-10-16T09:43:25;99790.23;;;21.12;40.32
51053;BME280;37093;37.716;-122.060;2022-10-16T09:45:56;99792.10;;;20.93;40.34
51053;BME280;37093;37.716;-122.060;2022-10-16T09:48:27;99792.91;;;21.07;40.04
51053;BME280;37093;37.716;-122.060;2022-10-16T09:50:58;99792.58;;;20.93;40.32
51053;BME280;37093;37.716;-122.060;2022-10-16T09:53:39;99797.65;;;20.33;41.13
51053;BME280;37093;37.716;-122.060;2022-10-16T09:56:11;99799.76;;;20.64;40.48
51053;BME280;37093;37.716;-122.060;2022-10-16T09:58:42;99801.48;;;20.92;40.23
51053;BME280;37093;37.716;-122.060;2022-10-16T10:01:14;99804.93;;;20.64;40.54
51053;BME280;37093;37.716;-122.060;2022-10-16T10:03:43;99804.57;;;20.50;40.67
51053;BME280;37093;37.716;-122.060;2022-10-16T10:06:23;99810.24;;;20.68;41.07
51053;BME280;37093;37.716;-122.060;2022-10-16T10:08:55;99810.61;;;21.01;40.38
51053;BME280;37093;37.716;-122.060;2022-10-16T10:11:43;99813.39;;;20.69;40.41
51053;BME280;37093;37.716;-122.060;2022-10-16T10:14:19;99816.84;;;20.59;40.71
51053;BME280;37093;37.716;-122.060;2022-10-16T10:16:48;99812.63;;;20.86;40.31
51053;BME280;37093;37.716;-122.060;2022-10-16T10:19:19;99815.00;;;20.98;40.04
51053;BME280;37093;37.716;-122.060;2022-10-16T10:21:50;99815.80;;;21.03;40.12
51053;BME280;37093;37.716;-122.060;2022-10-16T10:24:19;99815.33;;;20.86;40.63
51053;BME280;37093;37.716;-122.060;2022-10-16T10:26:56;99815.95;;;21.07;40.29
51053;BME280;37093;37.716;-122.060;2022-10-16T10:29:40;99814.56;;;21.21;40.41
51053;BME280;37093;37.716;-122.060;2022-10-16T10:32:20;99815.42;;;20.75;40.30
51053;BME280;37093;37.716;-122.060;2022-10-16T10:35:05;99815.98;;;20.54;40.93
51053;BME280;37093;37.716;-122.060;2022-10-16T10:37:48;99814.68;;;20.76;40.89
51053;BME280;37093;37.716;-122.060;2022-10-16T10:40:30;99812.72;;;20.30;41.26
51053;BME280;37093;37.716;-122.060;2022-10-16T10:43:08;99811.82;;;20.38;41.33
51053;BME280;37093;37.716;-122.060;2022-10-16T10:45:43;99809.93;;;20.42;40.92
51053;BME280;37093;37.716;-122.060;2022-10-16T10:48:22;99814.28;;;20.65;40.42
51053;BME280;37093;37.716;-122.060;2022-10-16T10:50:57;99816.12;;;20.73;40.55
51053;BME280;37093;37.716;-122.060;2022-10-16T10:53:39;99822.67;;;20.70;40.55
51053;BME280;37093;37.716;-122.060;2022-10-16T10:56:22;99821.79;;;20.89;40.19
51053;BME280;37093;37.716;-122.060;2022-10-16T10:59:04;99827.77;;;20.86;40.01
51053;BME280;37093;37.716;-122.060;2022-10-16T11:01:42;99832.99;;;20.98;39.68
51053;BME280;37093;37.716;-122.060;2022-10-16T11:04:29;99833.76;;;20.97;39.70
51053;BME280;37093;37.716;-122.060;2022-10-16T11:07:04;99837.64;;;21.04;39.35
51053;BME280;37093;37.716;-122.060;2022-10-16T11:09:37;99837.70;;;20.84;39.32
51053;BME280;37093;37.716;-122.060;2022-10-16T11:12:10;99835.14;;;20.93;39.22
51053;BME280;37093;37.716;-122.060;2022-10-16T11:14:44;99831.74;;;21.03;38.99
51053;BME280;37093;37.716;-122.060;2022-10-16T11:17:18;99832.35;;;21.32;38.87
51053;BME280;37093;37.716;-122.060;2022-10-16T11:19:51;99836.28;;;21.16;38.92
51053;BME280;37093;37.716;-122.060;2022-10-16T11:22:25;99845.06;;;21.08;38.97
51053;BME280;37093;37.716;-122.060;2022-10-16T11:25:02;99845.58;;;20.98;39.25
51053;BME280;37093;37.716;-122.060;2022-10-16T11:27:38;99842.98;;;20.90;39.49
51053;BME280;37093;37.716;-122.060;2022-10-16T11:30:16;99843.10;;;20.69;39.83
51053;BME280;37093;37.716;-122.060;2022-10-16T11:32:56;99843.90;;;20.80;39.83
51053;BME280;37093;37.716;-122.060;2022-10-16T11:35:38;99841.20;;;20.32;40.82
51053;BME280;37093;37.716;-122.060;2022-10-16T11:38:14;99841.50;;;20.75;40.61
51053;BME280;37093;37.716;-122.060;2022-10-16T11:40:45;99839.72;;;20.59;40.12
51053;BME280;37093;37.716;-122.060;2022-10-16T11:43:21;99840.78;;;21.16;39.72
51053;BME280;37093;37.716;-122.060;2022-10-16T11:45:54;99843.34;;;20.65;40.02
51053;BME280;37093;37.716;-122.060;2022-10-16T11:48:29;99846.37;;;20.84;40.44
51053;BME280;37093;37.716;-122.060;2022-10-16T11:51:05;99844.70;;;20.80;39.89
51053;BME280;37093;37.716;-122.060;2022-10-16T11:53:45;99850.65;;;21.06;39.87
51053;BME280;37093;37.716;-122.060;2022-10-16T11:56:16;99855.17;;;20.87;40.46
51053;BME280;37093;37.716;-122.060;2022-10-16T11:58:53;99856.78;;;21.08;40.02
51053;BME280;37093;37.716;-122.060;2022-10-16T12:01:29;99857.08;;;20.93;40.21
51053;BME280;37093;37.716;-122.060;2022-10-16T12:04:12;99859.51;;;20.87;40.59
51053;BME280;37093;37.716;-122.060;2022-10-16T12:06:45;99861.16;;;20.84;40.24
51053;BME280;37093;37.716;-122.060;2022-10-16T12:09:19;99861.50;;;21.15;40.14
51053;BME280;37093;37.716;-122.060;2022-10-16T12:11:49;99865.72;;;20.98;39.90
51053;BME280;37093;37.716;-122.060;2022-10-16T12:14:34;99867.06;;;20.86;40.20
51053;BME280;37093;37.716;-122.060;2022-10-16T12:17:23;99868.88;;;20.99;39.96
51053;BME280;37093;37.716;-122.060;2022-10-16T12:19:59;99869.39;;;20.68;40.50
51053;BME280;37093;37.716;-122.060;2022-10-16T12:22:29;99873.69;;;21.03;39.88
51053;BME280;37093;37.716;-122.060;2022-10-16T12:24:59;99875.37;;;20.86;40.30
51053;BME280;37093;37.716;-122.060;2022-10-16T12:27:30;99882.64;;;20.98;40.02
51053;BME280;37093;37.716;-122.060;2022-10-16T12:30:00;99883.82;;;21.01;40.02
51053;BME280;37093;37.716;-122.060;2022-10-16T12:32:31;99884.72;;;20.91;40.27
51053;BME280;37093;37.716;-122.060;2022-10-16T12:35:01;99884.22;;;21.18;40.11
51053;BME280;37093;37.716;-122.060;2022-10-16T12:37:33;99883.77;;;21.09;39.81
51053;BME280;37093;37.716;-122.060;2022-10-16T12:40:12;99886.61;;;20.99;40.19
51053;BME280;37093;37.716;-122.060;2022-10-16T12:42:41;99884.29;;;21.12;39.94
51053;BME280;37093;37.716;-122.060;2022-10-16T12:45:26;99887.74;;;20.89;40.37
51053;BME280;37093;37.716;-122.060;2022-10-16T12:47:55;99892.78;;;21.08;39.81
51053;BME280;37093;37.716;-122.060;2022-10-16T12:50:26;99892.93;;;21.14;39.72
51053;BME280;37093;37.716;-122.060;2022-10-16T12:52:55;99894.08;;;21.08;39.73